Puerto Belgrano, Argentina
Current Conditions -  °F | °C
As of 12:00 AM on Wednesday 22 Oct 2014 (Local Time) from SAZM Reporting Station
Clear Clear  
Wind Chill: 19°   Ceiling: Unl
Heat Index: 19°   Visibility: 6mi
Dew Point: 16°   Wind: 15mph
Humidity: 83%   Direction: 340°NNW
Pressure: 29.94"   Gusts: NA
Location:  38.92°S, 62.08°W
Report Text: SAZM 220300Z 34013KT CAVOK 19/16 Q1014
Loading
Personal Weather Stations






























Interactive Weather Map
Tropical Storm Tracking
New forecast layout! Learn more

10-Day Weather Forecast

Advertisements
Track Severe Weather on mobile